sensor_id;sensor_type;location;lat;lon;timestamp;temperature;humidity
24664;DHT22;12791;50.992;13.788;2022-09-09T00:00:54;15.90;99.90
24664;DHT22;12791;50.992;13.788;2022-09-09T00:03:26;15.90;99.90
24664;DHT22;12791;50.992;13.788;2022-09-09T00:06:00;15.90;99.90
24664;DHT22;12791;50.992;13.788;2022-09-09T00:08:37;15.80;99.90
24664;DHT22;12791;50.992;13.788;2022-09-09T00:11:09;15.80;99.90
24664;DHT22;12791;50.992;13.788;2022-09-09T00:13:45;15.70;99.90
24664;DHT22;12791;50.992;13.788;2022-09-09T00:16:17;15.70;99.90
24664;DHT22;12791;50.992;13.788;2022-09-09T00:18:51;15.70;99.90
24664;DHT22;12791;50.992;13.788;2022-09-09T00:21:19;15.70;99.90
24664;DHT22;12791;50.992;13.788;2022-09-09T00:23:50;15.70;99.90
24664;DHT22;12791;50.992;13.788;2022-09-09T00:26:22;15.60;99.90
24664;DHT22;12791;50.992;13.788;2022-09-09T00:28:55;15.60;99.90
24664;DHT22;12791;50.992;13.788;2022-09-09T00:31:29;15.60;99.90
24664;DHT22;12791;50.992;13.788;2022-09-09T00:33:59;15.60;99.90
24664;DHT22;12791;50.992;13.788;2022-09-09T00:36:31;15.60;99.90
24664;DHT22;12791;50.992;13.788;2022-09-09T00:39:00;15.50;99.90
24664;DHT22;12791;50.992;13.788;2022-09-09T00:41:38;15.50;99.90
24664;DHT22;12791;50.992;13.788;2022-09-09T00:44:16;15.50;99.90
24664;DHT22;12791;50.992;13.788;2022-09-09T00:47:06;15.40;99.90
24664;DHT22;12791;50.992;13.788;2022-09-09T00:49:43;15.40;99.90
24664;DHT22;12791;50.992;13.788;2022-09-09T00:52:21;15.40;99.90
24664;DHT22;12791;50.992;13.788;2022-09-09T00:54:55;15.30;99.90
24664;DHT22;12791;50.992;13.788;2022-09-09T00:57:27;15.30;99.90
24664;DHT22;12791;50.992;13.788;2022-09-09T01:00:14;15.20;99.90
24664;DHT22;12791;50.992;13.788;2022-09-09T01:02:53;15.20;99.90
24664;DHT22;12791;50.992;13.788;2022-09-09T01:05:27;15.20;99.90
24664;DHT22;12791;50.992;13.788;2022-09-09T01:07:58;15.20;99.90
24664;DHT22;12791;50.992;13.788;2022-09-09T01:10:39;15.20;99.90
24664;DHT22;12791;50.992;13.788;2022-09-09T01:13:13;15.30;99.90
24664;DHT22;12791;50.992;13.788;2022-09-09T01:15:42;15.20;99.90
24664;DHT22;12791;50.992;13.788;2022-09-09T01:18:15;15.20;99.90
24664;DHT22;12791;50.992;13.788;2022-09-09T01:20:49;15.20;99.90
24664;DHT22;12791;50.992;13.788;2022-09-09T01:23:38;15.20;99.90
24664;DHT22;12791;50.992;13.788;2022-09-09T01:26:16;15.20;99.90
24664;DHT22;12791;50.992;13.788;2022-09-09T01:28:46;15.20;99.90
24664;DHT22;12791;50.992;13.788;2022-09-09T01:31:17;15.10;99.90
24664;DHT22;12791;50.992;13.788;2022-09-09T01:33:44;15.10;99.90
24664;DHT22;12791;50.992;13.788;2022-09-09T01:36:15;15.10;99.90
24664;DHT22;12791;50.992;13.788;2022-09-09T01:38:44;15.10;99.90
24664;DHT22;12791;50.992;13.788;2022-09-09T01:41:10;15.10;99.90
24664;DHT22;12791;50.992;13.788;2022-09-09T01:43:39;15.20;99.90
24664;DHT22;12791;50.992;13.788;2022-09-09T01:46:05;15.10;99.90
24664;DHT22;12791;50.992;13.788;2022-09-09T01:48:33;15.00;99.90
24664;DHT22;12791;50.992;13.788;2022-09-09T01:51:00;15.00;99.90
24664;DHT22;12791;50.992;13.788;2022-09-09T01:53:27;15.00;99.90
24664;DHT22;12791;50.992;13.788;2022-09-09T01:56:02;15.00;99.90
24664;DHT22;12791;50.992;13.788;2022-09-09T01:58:37;15.00;99.90
24664;DHT22;12791;50.992;13.788;2022-09-09T02:01:15;15.10;99.90
24664;DHT22;12791;50.992;13.788;2022-09-09T02:03:49;15.00;99.90
24664;DHT22;12791;50.992;13.788;2022-09-09T02:06:25;15.10;99.90
24664;DHT22;12791;50.992;13.788;2022-09-09T02:08:56;15.00;99.90
24664;DHT22;12791;50.992;13.788;2022-09-09T02:11:26;14.90;99.90
24664;DHT22;12791;50.992;13.788;2022-09-09T02:13:57;14.90;99.90
24664;DHT22;12791;50.992;13.788;2022-09-09T02:16:32;14.80;99.90
24664;DHT22;12791;50.992;13.788;2022-09-09T02:19:03;14.80;99.90
24664;DHT22;12791;50.992;13.788;2022-09-09T02:21:33;14.80;99.90
24664;DHT22;12791;50.992;13.788;2022-09-09T02:24:03;14.80;99.90
24664;DHT22;12791;50.992;13.788;2022-09-09T02:26:31;14.70;99.90
24664;DHT22;12791;50.992;13.788;2022-09-09T02:29:02;14.70;99.90
24664;DHT22;12791;50.992;13.788;2022-09-09T02:31:31;14.70;99.90
24664;DHT22;12791;50.992;13.788;2022-09-09T02:34:02;14.60;99.90
24664;DHT22;12791;50.992;13.788;2022-09-09T02:36:32;14.60;99.90
24664;DHT22;12791;50.992;13.788;2022-09-09T02:39:00;14.60;99.90
24664;DHT22;12791;50.992;13.788;2022-09-09T02:41:31;14.50;99.90
24664;DHT22;12791;50.992;13.788;2022-09-09T02:43:59;14.50;99.90
24664;DHT22;12791;50.992;13.788;2022-09-09T02:46:40;14.60;99.90
24664;DHT22;12791;50.992;13.788;2022-09-09T02:49:16;14.60;99.90
24664;DHT22;12791;50.992;13.788;2022-09-09T02:51:51;14.60;99.90
24664;DHT22;12791;50.992;13.788;2022-09-09T02:54:24;14.60;99.90
24664;DHT22;12791;50.992;13.788;2022-09-09T02:56:54;14.60;99.90
24664;DHT22;12791;50.992;13.788;2022-09-09T02:59:22;14.60;99.90
24664;DHT22;12791;50.992;13.788;2022-09-09T03:01:52;14.60;99.90
24664;DHT22;12791;50.992;13.788;2022-09-09T03:04:19;14.60;99.90
24664;DHT22;12791;50.992;13.788;2022-09-09T03:06:46;14.60;99.90
24664;DHT22;12791;50.992;13.788;2022-09-09T03:09:13;14.60;99.90
24664;DHT22;12791;50.992;13.788;2022-09-09T03:11:40;14.50;99.90
24664;DHT22;12791;50.992;13.788;2022-09-09T03:14:07;14.50;99.90
24664;DHT22;12791;50.992;13.788;2022-09-09T03:16:34;14.50;99.90
24664;DHT22;12791;50.992;13.788;2022-09-09T03:19:02;14.40;99.90
24664;DHT22;12791;50.992;13.788;2022-09-09T03:21:29;14.40;99.90
24664;DHT22;12791;50.992;13.788;2022-09-09T03:23:56;14.40;99.90
24664;DHT22;12791;50.992;13.788;2022-09-09T03:26:23;14.40;99.90
24664;DHT22;12791;50.992;13.788;2022-09-09T03:28:50;14.40;99.90
24664;DHT22;12791;50.992;13.788;2022-09-09T03:31:18;14.30;99.90
24664;DHT22;12791;50.992;13.788;2022-09-09T03:33:44;14.30;99.90
24664;DHT22;12791;50.992;13.788;2022-09-09T03:36:13;14.30;99.90
24664;DHT22;12791;50.992;13.788;2022-09-09T03:38:39;14.20;99.90
24664;DHT22;12791;50.992;13.788;2022-09-09T03:41:06;14.20;99.90
24664;DHT22;12791;50.992;13.788;2022-09-09T03:43:39;14.20;99.90
24664;DHT22;12791;50.992;13.788;2022-09-09T03:46:07;14.20;99.90
24664;DHT22;12791;50.992;13.788;2022-09-09T03:48:33;14.20;99.90
24664;DHT22;12791;50.992;13.788;2022-09-09T03:51:00;14.20;99.90
24664;DHT22;12791;50.992;13.788;2022-09-09T03:53:29;14.30;99.90
24664;DHT22;12791;50.992;13.788;2022-09-09T03:55:57;14.30;99.90
24664;DHT22;12791;50.992;13.788;2022-09-09T03:58:25;14.30;99.90
24664;DHT22;12791;50.992;13.788;2022-09-09T04:00:55;14.30;99.90
24664;DHT22;12791;50.992;13.788;2022-09-09T04:03:22;14.30;99.90
24664;DHT22;12791;50.992;13.788;2022-09-09T04:05:50;14.30;99.90
24664;DHT22;12791;50.992;13.788;2022-09-09T04:08:17;14.30;99.90
24664;DHT22;12791;50.992;13.788;2022-09-09T04:10:44;14.30;99.90
24664;DHT22;12791;50.992;13.788;2022-09-09T04:13:12;14.30;99.90
24664;DHT22;12791;50.992;13.788;2022-09-09T04:15:41;14.20;99.90
24664;DHT22;12791;50.992;13.788;2022-09-09T04:18:09;14.20;99.90
24664;DHT22;12791;50.992;13.788;2022-09-09T04:20:37;14.20;99.90
24664;DHT22;12791;50.992;13.788;2022-09-09T04:23:04;14.20;99.90
24664;DHT22;12791;50.992;13.788;2022-09-09T04:25:31;14.20;99.90
24664;DHT22;12791;50.992;13.788;2022-09-09T04:27:57;14.30;99.90
24664;DHT22;12791;50.992;13.788;2022-09-09T04:30:25;14.20;99.90
24664;DHT22;12791;50.992;13.788;2022-09-09T04:32:52;14.30;99.90
24664;DHT22;12791;50.992;13.788;2022-09-09T04:35:20;14.30;99.90
24664;DHT22;12791;50.992;13.788;2022-09-09T04:37:47;14.30;99.90
24664;DHT22;12791;50.992;13.788;2022-09-09T04:40:14;14.40;99.90
24664;DHT22;12791;50.992;13.788;2022-09-09T04:42:40;14.40;99.90
24664;DHT22;12791;50.992;13.788;2022-09-09T04:45:09;14.40;99.90
24664;DHT22;12791;50.992;13.788;2022-09-09T04:47:38;14.40;99.90
24664;DHT22;12791;50.992;13.788;2022-09-09T04:50:05;14.40;99.90
24664;DHT22;12791;50.992;13.788;2022-09-09T04:52:35;14.40;99.90
24664;DHT22;12791;50.992;13.788;2022-09-09T04:55:02;14.50;99.90
24664;DHT22;12791;50.992;13.788;2022-09-09T04:57:29;14.50;99.90
24664;DHT22;12791;50.992;13.788;2022-09-09T04:59:57;14.50;99.90
24664;DHT22;12791;50.992;13.788;2022-09-09T05:02:25;14.50;99.90
24664;DHT22;12791;50.992;13.788;2022-09-09T05:04:52;14.50;99.90
24664;DHT22;12791;50.992;13.788;2022-09-09T05:07:18;14.60;99.90
24664;DHT22;12791;50.992;13.788;2022-09-09T05:09:46;14.60;99.90
24664;DHT22;12791;50.992;13.788;2022-09-09T05:12:14;14.60;99.90
24664;DHT22;12791;50.992;13.788;2022-09-09T05:14:41;14.60;99.90
24664;DHT22;12791;50.992;13.788;2022-09-09T05:17:09;14.60;99.90
24664;DHT22;12791;50.992;13.788;2022-09-09T05:19:36;14.70;99.90
24664;DHT22;12791;50.992;13.788;2022-09-09T05:22:03;14.70;99.90
24664;DHT22;12791;50.992;13.788;2022-09-09T05:24:30;14.80;99.90
24664;DHT22;12791;50.992;13.788;2022-09-09T05:26:59;14.80;99.90
24664;DHT22;12791;50.992;13.788;2022-09-09T05:29:27;14.80;99.90
24664;DHT22;12791;50.992;13.788;2022-09-09T05:31:54;14.80;99.90
24664;DHT22;12791;50.992;13.788;2022-09-09T05:34:20;14.80;99.90
24664;DHT22;12791;50.992;13.788;2022-09-09T05:36:47;14.80;99.90
24664;DHT22;12791;50.992;13.788;2022-09-09T05:39:14;14.80;99.90
24664;DHT22;12791;50.992;13.788;2022-09-09T05:41:40;14.80;99.90
24664;DHT22;12791;50.992;13.788;2022-09-09T05:44:08;14.80;99.90
24664;DHT22;12791;50.992;13.788;2022-09-09T05:46:35;14.80;99.90
24664;DHT22;12791;50.992;13.788;2022-09-09T05:49:02;14.90;99.90
24664;DHT22;12791;50.992;13.788;2022-09-09T05:51:31;15.00;99.90
24664;DHT22;12791;50.992;13.788;2022-09-09T05:53:58;15.00;99.90
24664;DHT22;12791;50.992;13.788;2022-09-09T05:56:26;15.10;99.90
24664;DHT22;12791;50.992;13.788;2022-09-09T05:58:53;15.10;99.90
24664;DHT22;12791;50.992;13.788;2022-09-09T06:01:24;15.20;99.90
24664;DHT22;12791;50.992;13.788;2022-09-09T06:03:51;15.10;99.90
24664;DHT22;12791;50.992;13.788;2022-09-09T06:06:20;15.20;99.90
24664;DHT22;12791;50.992;13.788;2022-09-09T06:08:47;15.20;99.90
24664;DHT22;12791;50.992;13.788;2022-09-09T06:11:18;15.20;99.90
24664;DHT22;12791;50.992;13.788;2022-09-09T06:13:45;15.30;99.90
24664;DHT22;12791;50.992;13.788;2022-09-09T06:16:15;15.30;99.90
24664;DHT22;12791;50.992;13.788;2022-09-09T06:18:43;15.30;99.90
24664;DHT22;12791;50.992;13.788;2022-09-09T06:21:14;15.30;99.90
24664;DHT22;12791;50.992;13.788;2022-09-09T06:23:42;15.30;99.90
24664;DHT22;12791;50.992;13.788;2022-09-09T06:26:12;15.40;99.90
24664;DHT22;12791;50.992;13.788;2022-09-09T06:28:39;15.40;99.90
24664;DHT22;12791;50.992;13.788;2022-09-09T06:31:10;15.40;99.90
24664;DHT22;12791;50.992;13.788;2022-09-09T06:33:41;15.40;99.90
24664;DHT22;12791;50.992;13.788;2022-09-09T06:36:13;15.40;99.90
24664;DHT22;12791;50.992;13.788;2022-09-09T06:38:40;15.50;99.90
24664;DHT22;12791;50.992;13.788;2022-09-09T06:41:08;15.50;99.90
24664;DHT22;12791;50.992;13.788;2022-09-09T06:43:35;15.50;99.90
24664;DHT22;12791;50.992;13.788;2022-09-09T06:46:03;15.50;99.90
24664;DHT22;12791;50.992;13.788;2022-09-09T06:48:30;15.50;99.90
24664;DHT22;12791;50.992;13.788;2022-09-09T06:51:02;15.60;99.90
24664;DHT22;12791;50.992;13.788;2022-09-09T06:53:30;15.70;99.90
24664;DHT22;12791;50.992;13.788;2022-09-09T06:55:58;15.80;99.90
24664;DHT22;12791;50.992;13.788;2022-09-09T06:58:26;15.80;99.90
24664;DHT22;12791;50.992;13.788;2022-09-09T07:01:00;16.10;99.90
24664;DHT22;12791;50.992;13.788;2022-09-09T07:03:27;15.90;99.90
24664;DHT22;12791;50.992;13.788;2022-09-09T07:05:54;15.90;99.90
24664;DHT22;12791;50.992;13.788;2022-09-09T07:08:21;16.00;99.90
24664;DHT22;12791;50.992;13.788;2022-09-09T07:10:49;16.00;99.90
24664;DHT22;12791;50.992;13.788;2022-09-09T07:13:16;16.10;99.90
24664;DHT22;12791;50.992;13.788;2022-09-09T07:15:45;16.10;99.90
24664;DHT22;12791;50.992;13.788;2022-09-09T07:18:11;16.20;99.90
24664;DHT22;12791;50.992;13.788;2022-09-09T07:20:38;16.20;99.90
24664;DHT22;12791;50.992;13.788;2022-09-09T07:23:05;16.30;99.90
24664;DHT22;12791;50.992;13.788;2022-09-09T07:25:31;16.40;99.90
24664;DHT22;12791;50.992;13.788;2022-09-09T07:27:59;16.50;99.90
24664;DHT22;12791;50.992;13.788;2022-09-09T07:30:26;16.60;99.90
24664;DHT22;12791;50.992;13.788;2022-09-09T07:32:52;16.70;99.90
24664;DHT22;12791;50.992;13.788;2022-09-09T07:35:19;16.70;99.90
24664;DHT22;12791;50.992;13.788;2022-09-09T07:37:46;16.80;99.90
24664;DHT22;12791;50.992;13.788;2022-09-09T07:40:12;16.90;99.90
24664;DHT22;12791;50.992;13.788;2022-09-09T07:42:39;17.00;99.90
24664;DHT22;12791;50.992;13.788;2022-09-09T07:45:08;17.00;99.90
24664;DHT22;12791;50.992;13.788;2022-09-09T07:47:34;17.00;99.90
24664;DHT22;12791;50.992;13.788;2022-09-09T07:50:01;17.10;99.90
24664;DHT22;12791;50.992;13.788;2022-09-09T07:52:27;17.20;99.90
24664;DHT22;12791;50.992;13.788;2022-09-09T07:54:54;17.20;99.90
24664;DHT22;12791;50.992;13.788;2022-09-09T07:57:21;17.20;99.90
24664;DHT22;12791;50.992;13.788;2022-09-09T07:59:48;17.20;99.90
24664;DHT22;12791;50.992;13.788;2022-09-09T08:02:17;17.30;99.90
24664;DHT22;12791;50.992;13.788;2022-09-09T08:04:43;17.50;99.90
24664;DHT22;12791;50.992;13.788;2022-09-09T08:07:11;17.60;99.90
24664;DHT22;12791;50.992;13.788;2022-09-09T08:09:38;17.70;99.90
24664;DHT22;12791;50.992;13.788;2022-09-09T08:12:05;17.80;99.90
24664;DHT22;12791;50.992;13.788;2022-09-09T08:14:32;18.00;99.90
24664;DHT22;12791;50.992;13.788;2022-09-09T08:16:59;18.00;99.90
24664;DHT22;12791;50.992;13.788;2022-09-09T08:19:26;18.10;99.90
24664;DHT22;12791;50.992;13.788;2022-09-09T08:21:54;18.20;99.90
24664;DHT22;12791;50.992;13.788;2022-09-09T08:24:21;18.20;99.90
24664;DHT22;12791;50.992;13.788;2022-09-09T08:26:48;18.30;99.90
24664;DHT22;12791;50.992;13.788;2022-09-09T08:29:16;18.30;99.90
24664;DHT22;12791;50.992;13.788;2022-09-09T08:31:44;18.40;99.90
24664;DHT22;12791;50.992;13.788;2022-09-09T08:34:11;18.40;99.90
24664;DHT22;12791;50.992;13.788;2022-09-09T08:36:41;18.40;99.90
24664;DHT22;12791;50.992;13.788;2022-09-09T08:39:09;18.50;99.90
24664;DHT22;12791;50.992;13.788;2022-09-09T08:41:57;18.60;99.90
24664;DHT22;12791;50.992;13.788;2022-09-09T08:44:32;18.60;99.90
24664;DHT22;12791;50.992;13.788;2022-09-09T08:47:09;18.70;99.90
24664;DHT22;12791;50.992;13.788;2022-09-09T08:49:57;18.70;99.90
24664;DHT22;12791;50.992;13.788;2022-09-09T08:52:30;18.70;99.90
24664;DHT22;12791;50.992;13.788;2022-09-09T08:55:05;18.90;99.90
24664;DHT22;12791;50.992;13.788;2022-09-09T08:57:38;18.90;99.90
24664;DHT22;12791;50.992;13.788;2022-09-09T09:00:09;19.00;99.90
24664;DHT22;12791;50.992;13.788;2022-09-09T09:02:42;19.00;99.90
24664;DHT22;12791;50.992;13.788;2022-09-09T09:05:19;19.00;99.90
24664;DHT22;12791;50.992;13.788;2022-09-09T09:07:59;19.10;99.90
24664;DHT22;12791;50.992;13.788;2022-09-09T09:10:40;19.10;99.90
24664;DHT22;12791;50.992;13.788;2022-09-09T09:13:14;19.10;99.90
24664;DHT22;12791;50.992;13.788;2022-09-09T09:15:43;19.10;99.90
24664;DHT22;12791;50.992;13.788;2022-09-09T09:18:12;19.10;99.90
24664;DHT22;12791;50.992;13.788;2022-09-09T09:20:44;19.20;99.90
24664;DHT22;12791;50.992;13.788;2022-09-09T09:23:19;19.20;99.90
24664;DHT22;12791;50.992;13.788;2022-09-09T09:25:47;19.20;99.90
24664;DHT22;12791;50.992;13.788;2022-09-09T09:28:17;19.10;99.90
24664;DHT22;12791;50.992;13.788;2022-09-09T09:30:48;19.10;99.90
24664;DHT22;12791;50.992;13.788;2022-09-09T09:33:21;19.00;99.90
24664;DHT22;12791;50.992;13.788;2022-09-09T09:35:49;19.00;99.90
24664;DHT22;12791;50.992;13.788;2022-09-09T09:38:19;18.90;99.90
24664;DHT22;12791;50.992;13.788;2022-09-09T09:40:51;18.80;99.90
24664;DHT22;12791;50.992;13.788;2022-09-09T09:43:23;18.80;99.90
24664;DHT22;12791;50.992;13.788;2022-09-09T09:45:50;18.70;99.90
24664;DHT22;12791;50.992;13.788;2022-09-09T09:48:17;18.70;99.90
24664;DHT22;12791;50.992;13.788;2022-09-09T09:50:48;18.60;99.90
24664;DHT22;12791;50.992;13.788;2022-09-09T09:53:23;18.60;99.90
24664;DHT22;12791;50.992;13.788;2022-09-09T09:55:54;18.60;99.90
24664;DHT22;12791;50.992;13.788;2022-09-09T09:58:22;18.60;99.90
24664;DHT22;12791;50.992;13.788;2022-09-09T10:00:50;18.80;99.90
24664;DHT22;12791;50.992;13.788;2022-09-09T10:03:24;18.90;99.90
24664;DHT22;12791;50.992;13.788;2022-09-09T10:05:52;19.00;99.90
24664;DHT22;12791;50.992;13.788;2022-09-09T10:08:20;19.10;99.90
24664;DHT22;12791;50.992;13.788;2022-09-09T10:10:57;19.10;99.90
24664;DHT22;12791;50.992;13.788;2022-09-09T10:13:31;19.20;99.90
24664;DHT22;12791;50.992;13.788;2022-09-09T10:16:08;19.20;99.90
24664;DHT22;12791;50.992;13.788;2022-09-09T10:18:47;19.30;99.90
24664;DHT22;12791;50.992;13.788;2022-09-09T10:24:24;19.40;99.90
24664;DHT22;12791;50.992;13.788;2022-09-09T10:27:01;19.40;99.90
24664;DHT22;12791;50.992;13.788;2022-09-09T10:29:42;19.50;99.90
24664;DHT22;12791;50.992;13.788;2022-09-09T10:32:32;19.50;99.90
24664;DHT22;12791;50.992;13.788;2022-09-09T10:35:04;19.50;99.90
24664;DHT22;12791;50.992;13.788;2022-09-09T10:37:47;19.60;99.90
24664;DHT22;12791;50.992;13.788;2022-09-09T10:40:26;19.60;99.90
24664;DHT22;12791;50.992;13.788;2022-09-09T10:43:00;19.60;99.90
24664;DHT22;12791;50.992;13.788;2022-09-09T10:45:33;19.70;99.90
24664;DHT22;12791;50.992;13.788;2022-09-09T10:48:13;19.70;99.90
24664;DHT22;12791;50.992;13.788;2022-09-09T10:50:50;19.80;99.90
24664;DHT22;12791;50.992;13.788;2022-09-09T10:53:28;19.70;99.90
24664;DHT22;12791;50.992;13.788;2022-09-09T10:56:03;19.70;99.90
24664;DHT22;12791;50.992;13.788;2022-09-09T10:58:35;19.70;99.50
24664;DHT22;12791;50.992;13.788;2022-09-09T11:01:12;19.70;99.60
24664;DHT22;12791;50.992;13.788;2022-09-09T11:03:42;19.70;99.90
24664;DHT22;12791;50.992;13.788;2022-09-09T11:06:14;19.70;99.90
24664;DHT22;12791;50.992;13.788;2022-09-09T11:08:42;19.60;99.90
24664;DHT22;12791;50.992;13.788;2022-09-09T11:11:13;19.60;99.90
24664;DHT22;12791;50.992;13.788;2022-09-09T11:13:46;19.60;99.90
24664;DHT22;12791;50.992;13.788;2022-09-09T11:16:24;19.60;99.70
24664;DHT22;12791;50.992;13.788;2022-09-09T11:18:54;19.60;99.70
24664;DHT22;12791;50.992;13.788;2022-09-09T11:21:25;19.60;99.90
24664;DHT22;12791;50.992;13.788;2022-09-09T11:23:56;19.50;99.90
24664;DHT22;12791;50.992;13.788;2022-09-09T11:26:30;19.50;99.90
24664;DHT22;12791;50.992;13.788;2022-09-09T11:29:12;19.50;99.90
24664;DHT22;12791;50.992;13.788;2022-09-09T11:31:45;19.40;99.90
24664;DHT22;12791;50.992;13.788;2022-09-09T11:34:21;19.50;99.90
24664;DHT22;12791;50.992;13.788;2022-09-09T11:37:14;19.50;99.90
24664;DHT22;12791;50.992;13.788;2022-09-09T11:40:07;19.60;99.90
24664;DHT22;12791;50.992;13.788;2022-09-09T11:42:36;19.60;99.90
24664;DHT22;12791;50.992;13.788;2022-09-09T11:45:15;19.70;99.90
24664;DHT22;12791;50.992;13.788;2022-09-09T11:47:51;19.80;99.90
24664;DHT22;12791;50.992;13.788;2022-09-09T11:50:31;19.90;99.90
24664;DHT22;12791;50.992;13.788;2022-09-09T11:53:22;19.90;99.40
24664;DHT22;12791;50.992;13.788;2022-09-09T11:56:01;20.00;99.90
24664;DHT22;12791;50.992;13.788;2022-09-09T11:58:37;20.00;99.90
24664;DHT22;12791;50.992;13.788;2022-09-09T12:01:14;20.10;98.70
24664;DHT22;12791;50.992;13.788;2022-09-09T12:03:43;20.20;96.10
24664;DHT22;12791;50.992;13.788;2022-09-09T12:06:15;20.30;97.40
24664;DHT22;12791;50.992;13.788;2022-09-09T12:08:45;20.40;97.60
24664;DHT22;12791;50.992;13.788;2022-09-09T12:11:24;20.40;96.00
24664;DHT22;12791;50.992;13.788;2022-09-09T12:13:54;20.40;94.80
24664;DHT22;12791;50.992;13.788;2022-09-09T12:16:32;20.50;94.10
24664;DHT22;12791;50.992;13.788;2022-09-09T12:19:12;20.60;94.90
24664;DHT22;12791;50.992;13.788;2022-09-09T12:21:44;20.60;95.30
24664;DHT22;12791;50.992;13.788;2022-09-09T12:24:15;20.60;95.00
24664;DHT22;12791;50.992;13.788;2022-09-09T12:26:49;20.60;95.50
24664;DHT22;12791;50.992;13.788;2022-09-09T12:29:27;20.60;96.20
24664;DHT22;12791;50.992;13.788;2022-09-09T12:32:00;20.60;96.20
24664;DHT22;12791;50.992;13.788;2022-09-09T12:34:38;20.60;95.40
24664;DHT22;12791;50.992;13.788;2022-09-09T12:37:12;20.60;94.40
24664;DHT22;12791;50.992;13.788;2022-09-09T12:39:42;20.60;93.30
24664;DHT22;12791;50.992;13.788;2022-09-09T12:42:17;20.70;94.20
24664;DHT22;12791;50.992;13.788;2022-09-09T12:44:52;20.70;94.10
24664;DHT22;12791;50.992;13.788;2022-09-09T12:47:21;20.70;94.40
24664;DHT22;12791;50.992;13.788;2022-09-09T12:49:49;20.70;94.10
24664;DHT22;12791;50.992;13.788;2022-09-09T12:52:21;20.70;94.10
24664;DHT22;12791;50.992;13.788;2022-09-09T12:54:49;20.70;94.10
24664;DHT22;12791;50.992;13.788;2022-09-09T12:57:17;20.70;94.40
24664;DHT22;12791;50.992;13.788;2022-09-09T12:59:44;20.80;93.80
24664;DHT22;12791;50.992;13.788;2022-09-09T13:02:18;20.90;94.00
24664;DHT22;12791;50.992;13.788;2022-09-09T13:04:45;20.90;93.60
24664;DHT22;12791;50.992;13.788;2022-09-09T13:07:13;21.00;93.80
24664;DHT22;12791;50.992;13.788;2022-09-09T13:09:42;21.00;94.20
24664;DHT22;12791;50.992;13.788;2022-09-09T13:12:13;21.10;94.00
24664;DHT22;12791;50.992;13.788;2022-09-09T13:14:44;21.10;94.20
24664;DHT22;12791;50.992;13.788;2022-09-09T13:17:19;21.10;93.50
24664;DHT22;12791;50.992;13.788;2022-09-09T13:19:46;21.10;90.70
24664;DHT22;12791;50.992;13.788;2022-09-09T13:22:21;21.10;91.20
24664;DHT22;12791;50.992;13.788;2022-09-09T13:24:59;21.10;92.10
24664;DHT22;12791;50.992;13.788;2022-09-09T13:27:30;21.00;93.10
24664;DHT22;12791;50.992;13.788;2022-09-09T13:29:57;21.10;93.60
24664;DHT22;12791;50.992;13.788;2022-09-09T13:32:27;21.10;92.70
24664;DHT22;12791;50.992;13.788;2022-09-09T13:34:55;21.20;92.10
24664;DHT22;12791;50.992;13.788;2022-09-09T13:37:29;21.20;91.50
24664;DHT22;12791;50.992;13.788;2022-09-09T13:39:57;21.30;91.10
24664;DHT22;12791;50.992;13.788;2022-09-09T13:42:26;21.40;90.10
24664;DHT22;12791;50.992;13.788;2022-09-09T13:44:54;21.40;90.10
24664;DHT22;12791;50.992;13.788;2022-09-09T13:47:28;21.50;89.20
24664;DHT22;12791;50.992;13.788;2022-09-09T13:49:55;21.50;88.10
24664;DHT22;12791;50.992;13.788;2022-09-09T13:52:21;21.60;86.10
24664;DHT22;12791;50.992;13.788;2022-09-09T13:54:49;21.60;86.80
24664;DHT22;12791;50.992;13.788;2022-09-09T13:57:18;21.60;87.20
24664;DHT22;12791;50.992;13.788;2022-09-09T13:59:45;21.60;87.80
24664;DHT22;12791;50.992;13.788;2022-09-09T14:02:12;21.60;86.50
24664;DHT22;12791;50.992;13.788;2022-09-09T14:04:40;21.60;86.90
24664;DHT22;12791;50.992;13.788;2022-09-09T14:07:10;21.60;86.20
24664;DHT22;12791;50.992;13.788;2022-09-09T14:09:37;21.50;86.40
24664;DHT22;12791;50.992;13.788;2022-09-09T14:12:04;21.50;87.00
24664;DHT22;12791;50.992;13.788;2022-09-09T14:14:31;21.40;87.30
24664;DHT22;12791;50.992;13.788;2022-09-09T14:16:57;21.40;86.50
24664;DHT22;12791;50.992;13.788;2022-09-09T14:19:24;21.30;86.10
24664;DHT22;12791;50.992;13.788;2022-09-09T14:21:52;21.30;87.30
24664;DHT22;12791;50.992;13.788;2022-09-09T14:24:19;21.30;88.10
24664;DHT22;12791;50.992;13.788;2022-09-09T14:26:46;21.30;86.80
24664;DHT22;12791;50.992;13.788;2022-09-09T14:29:13;21.30;87.30
24664;DHT22;12791;50.992;13.788;2022-09-09T14:31:39;21.20;87.90
24664;DHT22;12791;50.992;13.788;2022-09-09T14:34:06;21.20;88.80
24664;DHT22;12791;50.992;13.788;2022-09-09T14:36:33;21.20;89.60
24664;DHT22;12791;50.992;13.788;2022-09-09T14:39:01;21.20;90.00
24664;DHT22;12791;50.992;13.788;2022-09-09T14:41:27;21.30;88.80
24664;DHT22;12791;50.992;13.788;2022-09-09T14:43:54;21.30;88.40
24664;DHT22;12791;50.992;13.788;2022-09-09T14:46:21;21.40;86.80
24664;DHT22;12791;50.992;13.788;2022-09-09T14:48:49;21.40;83.10
24664;DHT22;12791;50.992;13.788;2022-09-09T14:51:17;21.40;84.40
24664;DHT22;12791;50.992;13.788;2022-09-09T14:53:45;21.40;84.70
24664;DHT22;12791;50.992;13.788;2022-09-09T14:56:15;21.40;84.70
24664;DHT22;12791;50.992;13.788;2022-09-09T14:58:42;21.40;85.50
24664;DHT22;12791;50.992;13.788;2022-09-09T15:01:10;21.40;89.80
24664;DHT22;12791;50.992;13.788;2022-09-09T15:03:37;21.30;92.10
24664;DHT22;12791;50.992;13.788;2022-09-09T15:06:08;21.20;94.90
24664;DHT22;12791;50.992;13.788;2022-09-09T15:08:35;21.10;98.20
24664;DHT22;12791;50.992;13.788;2022-09-09T15:11:02;21.00;99.90
24664;DHT22;12791;50.992;13.788;2022-09-09T15:13:31;20.90;99.90
24664;DHT22;12791;50.992;13.788;2022-09-09T15:16:03;20.80;99.90
24664;DHT22;12791;50.992;13.788;2022-09-09T15:18:30;20.80;99.90
24664;DHT22;12791;50.992;13.788;2022-09-09T15:20:57;20.80;99.90
24664;DHT22;12791;50.992;13.788;2022-09-09T15:23:24;20.70;99.90
24664;DHT22;12791;50.992;13.788;2022-09-09T15:25:51;20.70;99.90
24664;DHT22;12791;50.992;13.788;2022-09-09T15:28:18;20.70;99.90
24664;DHT22;12791;50.992;13.788;2022-09-09T15:30:48;20.70;99.90
24664;DHT22;12791;50.992;13.788;2022-09-09T15:33:15;20.60;99.90
24664;DHT22;12791;50.992;13.788;2022-09-09T15:35:42;20.60;99.90
24664;DHT22;12791;50.992;13.788;2022-09-09T15:38:09;20.50;99.90